Station: Bradshaw-Angallari Valley (Defence)  

  Atmospheric Gas Attenuation - ITU Rec 676-11   ----------------- dB/100km -----------------
Date Time Temp RH % AH g/m3 Dew Point Wind Direction Speed kph Gust kph Barometer mB Rainfall Since 9am 24GHz 47GHz 76GHz 122GHz 134GHz 241GHz
08/05 12:00 27.2 35 9.11 10.4 13 24 1014.8 0 20.0 23.1 35.5 93.2 88.9 306.8
08/05 11:50 27.6 34 9.05 10.7 15 17 1014.9 0 19.9 22.9 35.2 92.2 87.8 303.0
08/05 11:40 27.6 36 9.58 11.2 11 19 1015.1 0 21.0 23.7 37.0 97.1 93.8 324.0
08/05 11:30 26.9 37 9.47 11 15 26 1015.3 0 20.8 23.7 36.9 96.9 93.4 322.4
08/05 11:20 26.3 36 8.91 10.4 17 22 1015.4 0 19.6 23.1 35.2 92.5 87.7 302.4
08/05 11:10 25.9 37 8.96 10.1 13 17 1015.6 0 19.8 23.2 35.6 93.4 88.7 306.0
08/05 11:00 25.6 38 9.05 10.2 17 30 1015.7 0 20.0 23.5 36.0 94.6 90.1 310.7
08/05 10:50 25.8 38 9.15 10.4 17 26 1015.9 0 20.2 23.5 36.3 95.3 91.0 314.0
08/05 10:40 25.5 38 9 10.1 7 17 1015.9 0 19.9 23.4 35.9 94.2 89.6 309.1
08/05 10:30 25.1 39 9.03 10.2 17 26 1015.9 0 20.0 23.6 36.2 95.0 90.4 311.9
08/05 10:20 25.6 38 9.05 10.2 9 13 1016 0 20.0 23.5 36.1 94.6 90.1 310.8
08/05 10:10 24.6 39 8.78 9.7 22 30 1016.1 0 19.5 23.3 35.6 93.2 88.1 303.7
08/05 10:00 25.1 40 9.26 10.6 15 24 1016 0 20.4 23.9 37.0 97.2 93.1 321.2
08/05 09:50 24 39 8.48 9.5 20 33 1015.9 0 18.9 23.1 34.8 91.1 85.3 293.8
08/05 09:40 24 39 8.48 9.5 15 22 1015.9 0 18.9 23.1 34.8 91.1 85.3 293.8
08/05 09:30 23.6 41 8.72 9.6 19 37 1015.8 0 19.4 23.5 35.8 93.8 88.5 305.0
08/05 09:20 23.1 42 8.68 9.5 28 32 1015.8 0 19.3 23.6 35.8 94.0 88.6 305.2
08/05 09:10 23.2 41 8.52 9.5 15 24 1015.8 0 19.0 23.3 35.2 92.4 86.6 298.3
08/05 09:00 22.9 42 8.58 9.3 22 43 1015.5 0 19.1 23.5 35.6 93.2 87.6 301.8
08/05 08:50 22.9 42 8.58 9.6 19 24 1015.6 0 19.1 23.5 35.6 93.3 87.6 301.8
08/05 08:40 22.8 42 8.53 9.5 19 30 1015.7 0 19.0 23.4 35.4 92.9 87.1 300.2
08/05 08:30 22.4 44 8.74 9.6 20 35 1015.5 0 19.5 23.8 36.4 95.4 90.0 310.3
08/05 08:20 22.2 43 8.44 9.3 15 20 1015.5 0 18.9 23.4 35.4 92.7 86.7 298.6
08/05 08:10 22 45 8.73 9.5 19 30 1015.4 0 19.5 23.9 36.5 95.7 90.4 311.4
08/05 08:00 21.7 45 8.58 9.3 17 32 1015.4 0 19.2 23.8 36.1 94.6 88.9 306.3
08/05 07:50 21.5 44 8.3 9 13 28 1015.4 0 18.6 23.4 35.2 92.2 85.8 295.4
08/05 07:40 21.4 44 8.25 8.9 20 28 1015.3 0 18.5 23.4 35.0 91.8 85.3 293.7
08/05 07:30 21.2 46 8.52 9.1 13 22 1015.2 0 19.1 23.8 36.1 94.6 88.7 305.6
08/05 07:20 21.1 46 8.47 9 13 19 1015.1 0 19.0 23.8 35.9 94.2 88.3 303.9
08/05 07:10 20.9 46 8.38 8.8 13 17 1015 0 18.8 23.7 35.7 93.6 87.4 300.8
08/05 07:00 20.8 47 8.51 9.1 11 20 1015 0 19.1 23.9 36.2 95.0 89.1 306.6
08/05 06:50 20.8 46 8.33 9 9 13 1015 0 18.7 23.6 35.6 93.2 86.9 299.1
08/05 06:40 20.9 46 8.38 8.8 9 13 1014.9 0 18.8 23.7 35.7 93.6 87.4 300.8
08/05 06:30 20.9 47 8.56 9.2 9 22 1014.8 0 19.2 23.9 36.3 95.3 89.5 308.3
08/05 06:20 21 46 8.43 9.2 15 22 1014.7 0 18.9 23.7 35.8 93.9 87.9 302.5
08/05 06:10 20.9 46 8.38 9.1 7 11 1014.6 0 18.8 23.7 35.7 93.5 87.4 300.7
08/05 06:00 20.9 47 8.56 9.2 9 17 1014.6 0 19.2 23.9 36.3 95.3 89.5 308.3
08/05 05:50 20.6 48 8.59 9.2 11 13 1014.7 0 19.2 24.0 36.6 96.0 90.2 310.7
08/05 05:40 20.3 50 8.79 9.5 4 6 1014.7 0 19.7 24.4 37.5 98.3 93.0 320.4
08/05 05:30 19.9 51 8.76 9.5 6 13 1014.6 0 19.6 24.5 37.5 98.5 93.1 320.7
08/05 05:20 19.9 50 8.59 9.4 7 11 1014.4 0 19.3 24.2 36.9 96.8 91.0 313.3
08/05 05:10 19.6 51 8.61 9.4 6 6 1014.4 0 19.3 24.3 37.1 97.3 91.6 315.4
08/05 05:00 19.7 52 8.83 9.6 6 9 1014.5 0 19.8 24.6 37.9 99.4 94.2 324.4
08/05 04:50 19.8 50 8.54 9.3 6 7 1014.4 0 19.2 24.2 36.8 96.4 90.5 311.6
08/05 04:40 19.8 50 8.54 9.3 7 9 1014.3 0 19.2 24.2 36.7 96.4 90.5 311.6
08/05 04:30 19.9 51 8.76 9.5 7 11 1014.3 0 19.6 24.5 37.5 98.4 93.1 320.6
08/05 04:20 19.7 50 8.49 9.2 9 9 1014.3 0 19.1 24.1 36.6 96.0 90.0 309.8
08/05 04:10 19.7 50 8.49 9.2 7 7 1014.5 0 19.1 24.1 36.6 96.0 90.0 309.9
08/05 04:00 20 50 8.64 9.3 6 9 1014.6 0 19.4 24.3 37.0 97.2 91.5 315.1
08/05 03:50 20.1 48 8.34 9 6 7 1014.6 0 18.7 23.8 35.9 94.1 87.8 302.0
08/05 03:40 20.3 49 8.62 9.2 7 11 1014.6 0 19.3 24.2 36.8 96.6 90.9 313.1
08/05 03:30 20.4 48 8.49 9 7 11 1014.6 0 19.0 23.9 36.3 95.2 89.2 307.2
08/05 03:20 20.6 48 8.59 9.2 6 7 1014.6 0 19.2 24.0 36.6 95.9 90.2 310.7
08/05 03:10 20.6 48 8.59 9.2 6 7 1014.6 0 19.2 24.0 36.6 95.9 90.2 310.7
08/05 03:00 20.8 47 8.51 9.1 7 11 1014.7 0 19.1 23.9 36.2 94.9 89.0 306.6
08/05 02:50 21 46 8.43 9.2 7 7 1014.7 0 18.9 23.7 35.8 93.9 87.9 302.5
08/05 02:40 21.1 46 8.47 9 7 9 1014.8 0 19.0 23.7 35.9 94.2 88.2 303.8
08/05 02:30 21.3 45 8.39 8.9 9 15 1014.9 0 18.8 23.6 35.6 93.2 87.1 299.7
08/05 02:20 21.4 44 8.25 8.9 9 11 1015 0 18.5 23.4 35.0 91.8 85.3 293.6
08/05 02:10 21.4 44 8.25 8.9 9 13 1015 0 18.5 23.4 35.0 91.8 85.3 293.6
08/05 02:00 21.1 47 8.66 9.4 7 13 1015.1 0 19.4 24.0 36.6 96.1 90.5 311.8
08/05 01:50 21 46 8.43 9.2 6 7 1015.2 0 18.9 23.7 35.8 94.0 87.9 302.6
08/05 01:40 21 46 8.43 9.2 6 7 1015.2 0 18.9 23.7 35.8 94.0 87.9 302.6
08/05 01:30 20.9 47 8.56 9.2 6 9 1015.3 0 19.2 23.9 36.4 95.4 89.6 308.4
08/05 01:20 21.3 46 8.57 9.2 4 6 1015.4 0 19.2 23.9 36.2 95.0 89.2 307.4
08/05 01:10 21.3 46 8.57 9.2 7 9 1015.4 0 19.2 23.9 36.2 95.0 89.2 307.4
08/05 01:00 21.2 46 8.52 9.1 6 9 1015.5 0 19.1 23.8 36.1 94.6 88.8 305.7
08/05 00:50 21.4 44 8.25 8.9 6 7 1015.6 0 18.5 23.4 35.0 91.8 85.4 293.7
08/05 00:40 21.7 44 8.39 8.9 7 7 1015.6 0 18.8 23.5 35.4 92.8 86.7 298.4
08/05 00:30 21.9 43 8.3 8.8 7 9 1015.7 0 18.6 23.3 35.0 91.7 85.4 294.0
08/05 00:20 22.1 43 8.39 8.9 6 9 1015.7 0 18.8 23.4 35.2 92.4 86.3 297.0
08/05 00:10 22.2 43 8.44 9 7 9 1015.8 0 18.9 23.5 35.4 92.7 86.7 298.7
08/05 00:00 22.4 42 8.34 8.9 6 9 1015.8 0 18.6 23.3 34.9 91.6 85.4 293.9
07/05 23:50 22.5 41 8.19 8.9 7 9 1015.8 0 18.3 23.0 34.4 90.0 83.5 287.4
07/05 23:40 22.7 42 8.49 9.1 6 11 1015.9 0 18.9 23.4 35.4 92.7 86.8 298.9
07/05 23:30 22.8 41 8.33 8.9 7 13 1015.9 0 18.6 23.1 34.7 91.0 84.8 292.0
07/05 23:20 22.8 40 8.13 8.8 7 11 1015.9 0 18.2 22.9 34.0 89.2 82.5 283.9
07/05 23:10 22.9 40 8.17 8.9 7 11 1015.9 0 18.3 22.9 34.1 89.4 82.9 285.2
07/05 23:00 23.1 40 8.27 8.8 7 13 1015.9 0 18.5 23.0 34.4 90.1 83.8 288.5
07/05 22:50 23.1 39 8.06 8.7 9 11 1015.9 0 18.0 22.7 33.7 88.2 81.4 280.1
07/05 22:40 22.6 42 8.44 9 9 17 1015.9 0 18.8 23.4 35.2 92.3 86.3 297.3
07/05 22:30 22.2 44 8.64 9.4 6 9 1015.8 0 19.3 23.7 36.1 94.7 89.1 307.0
07/05 22:20 21.7 45 8.58 9.5 4 6 1015.8 0 19.2 23.8 36.1 94.7 89.0 306.4
07/05 22:10 21.3 48 8.95 10.1 6 7 1015.8 0 20.0 24.4 37.6 98.7 93.8 323.5
07/05 22:00 20.9 50 9.11 10.1 4 6 1015.8 0 20.3 24.8 38.4 100.8 96.3 331.9
07/05 21:50 20.6 51 9.13 10.1 4 4 1015.8 0 20.4 24.9 38.6 101.4 96.9 334.0
07/05 21:40 20.8 50 9.05 10 2 4 1015.8 0 20.2 24.7 38.2 100.3 95.7 329.8
07/05 21:30 20.8 50 9.05 10 2 4 1015.8 0 20.2 24.7 38.2 100.3 95.7 329.8
07/05 21:20 21 52 9.52 11 2 4 1015.8 0 21.2 25.4 39.9 104.8 101.2 349.2
07/05 21:10 21.3 50 9.32 10.7 2 2 1015.6 0 20.7 25.0 39.0 102.4 98.3 339.2
07/05 21:00 21.7 47 8.96 9.9 2 2 1015.5 0 20.0 24.3 37.5 98.3 93.5 322.2
07/05 20:50 21.9 46 8.88 10 2 2 1015.4 0 19.8 24.2 37.1 97.3 92.3 318.0
07/05 20:40 22.3 45 8.89 9.8 2 4 1015.3 0 19.8 24.1 36.9 96.9 91.9 316.8
07/05 20:30 22.7 44 8.89 9.8 4 4 1015.2 0 19.8 24.0 36.8 96.4 91.5 315.2
07/05 20:20 23 42 8.63 9.4 2 4 1015.1 0 19.2 23.5 35.7 93.6 88.0 303.4
07/05 20:10 23.1 41 8.47 9.1 4 4 1015 0 18.9 23.2 35.1 91.9 86.1 296.4
07/05 20:00 23.3 41 8.57 9.3 4 6 1014.8 0 19.1 23.3 35.3 92.6 87.0 299.7
07/05 19:50 23.6 40 8.51 9.2 6 6 1014.7 0 18.9 23.2 35.0 91.7 86.0 296.2
07/05 19:40 24 39 8.48 9.2 6 6 1014.6 0 18.9 23.0 34.7 91.0 85.2 293.5
07/05 19:30 24.3 38 8.41 9.1 4 9 1014.5 0 18.7 22.8 34.3 90.0 84.1 289.6

Last Refresh: 08-May-2026 12:08:01

Bureau of Meteorology